createdAt,value
2023-05-19T00:00:09.428Z,93.88
2023-05-19T00:02:39.788Z,95.02
2023-05-19T00:05:10.563Z,97.35
2023-05-19T00:07:40.728Z,98.24
2023-05-19T00:10:11.998Z,97.75
2023-05-19T00:12:40.254Z,97.04
2023-05-19T00:15:10.808Z,96.46
2023-05-19T00:17:42.595Z,96.73
2023-05-19T00:20:12.853Z,96.07
2023-05-19T00:22:41.360Z,99.23
2023-05-19T00:25:10.244Z,99.03
2023-05-19T00:27:38.778Z,100.00
2023-05-19T00:30:08.247Z,99.42
2023-05-19T00:32:36.778Z,96.16
2023-05-19T00:35:07.086Z,96.06
2023-05-19T00:37:35.151Z,96.24
2023-05-19T00:40:05.728Z,95.23
2023-05-19T00:42:33.936Z,96.06
2023-05-19T00:45:01.918Z,97.72
2023-05-19T00:47:29.957Z,96.67
2023-05-19T00:49:58.010Z,98.52
2023-05-19T00:52:28.011Z,98.98
2023-05-19T00:54:57.260Z,97.87
2023-05-19T00:57:26.130Z,99.94
2023-05-19T00:59:54.282Z,100.00
2023-05-19T01:02:22.588Z,100.00
2023-05-19T01:04:51.951Z,100.00
2023-05-19T01:07:21.249Z,100.00
2023-05-19T01:09:50.889Z,100.00
2023-05-19T01:12:19.351Z,100.00
2023-05-19T01:14:47.427Z,100.00
2023-05-19T01:17:23.273Z,100.00
2023-05-19T01:20:08.161Z,100.00
2023-05-19T01:22:55.117Z,100.00
2023-05-19T01:25:44.317Z,100.00
2023-05-19T01:28:46.879Z,100.00
2023-05-19T01:31:18.252Z,100.00
2023-05-19T01:33:47.753Z,100.00
2023-05-19T01:36:16.593Z,100.00
2023-05-19T01:38:45.397Z,100.00
2023-05-19T01:41:14.205Z,100.00
2023-05-19T01:43:42.549Z,100.00
2023-05-19T01:46:11.269Z,100.00
2023-05-19T01:48:40.840Z,100.00
2023-05-19T01:51:08.859Z,100.00
2023-05-19T01:53:36.898Z,100.00
2023-05-19T01:56:06.789Z,100.00
2023-05-19T01:58:42.918Z,100.00
2023-05-19T02:01:21.860Z,100.00
2023-05-19T02:04:19.860Z,100.00
2023-05-19T02:06:56.248Z,100.00
2023-05-19T02:09:29.702Z,100.00
2023-05-19T02:12:04.451Z,100.00
2023-05-19T02:14:36.735Z,100.00
2023-05-19T02:17:06.464Z,100.00
2023-05-19T02:19:38.176Z,100.00
2023-05-19T02:22:07.119Z,100.00
2023-05-19T02:24:35.197Z,100.00
2023-05-19T02:27:03.317Z,100.00
2023-05-19T02:29:31.337Z,100.00
2023-05-19T02:32:00.150Z,100.00
2023-05-19T02:34:28.256Z,100.00
2023-05-19T02:36:57.863Z,100.00
2023-05-19T02:39:26.476Z,100.00
2023-05-19T02:41:54.483Z,100.00
2023-05-19T02:44:22.457Z,100.00
2023-05-19T02:46:50.534Z,100.00
2023-05-19T02:49:18.592Z,100.00
2023-05-19T02:51:46.599Z,100.00
2023-05-19T02:54:15.933Z,100.00
2023-05-19T02:56:43.941Z,100.00
2023-05-19T02:59:11.938Z,100.00
2023-05-19T03:01:40.594Z,100.00
2023-05-19T03:04:08.744Z,100.00
2023-05-19T03:06:36.801Z,100.00
2023-05-19T03:09:04.931Z,100.00
2023-05-19T03:11:34.308Z,100.00
2023-05-19T03:14:03.057Z,100.00
2023-05-19T03:16:31.589Z,100.00
2023-05-19T03:19:00.293Z,100.00
2023-05-19T03:21:28.410Z,100.00
2023-05-19T03:23:56.432Z,100.00
2023-05-19T03:26:24.672Z,100.00
2023-05-19T03:28:54.380Z,100.00
2023-05-19T03:31:22.396Z,100.00
2023-05-19T03:33:50.443Z,100.00
2023-05-19T03:36:18.689Z,100.00
2023-05-19T03:38:46.697Z,100.00
2023-05-19T03:41:14.770Z,100.00
2023-05-19T03:43:42.818Z,100.00
2023-05-19T03:46:12.197Z,100.00
2023-05-19T03:48:40.176Z,100.00
2023-05-19T03:51:09.174Z,100.00
2023-05-19T03:53:38.048Z,100.00
2023-05-19T03:56:07.699Z,100.00
2023-05-19T03:58:37.109Z,100.00
2023-05-19T04:01:05.104Z,100.00
2023-05-19T04:03:34.464Z,100.00
2023-05-19T04:06:02.527Z,100.00
2023-05-19T04:08:30.489Z,100.00
2023-05-19T04:10:58.533Z,100.00
2023-05-19T04:13:26.523Z,100.00
2023-05-19T04:15:54.636Z,100.00
2023-05-19T04:18:22.667Z,100.00
2023-05-19T04:20:52.403Z,100.00
2023-05-19T04:23:20.371Z,100.00
2023-05-19T04:25:48.846Z,100.00
2023-05-19T04:28:18.014Z,100.00
2023-05-19T04:30:46.802Z,100.00
2023-05-19T04:33:14.927Z,100.00
2023-05-19T04:35:43.922Z,100.00
2023-05-19T04:38:13.299Z,100.00
2023-05-19T04:40:42.341Z,100.00
2023-05-19T04:43:11.537Z,100.00
2023-05-19T04:45:42.727Z,100.00
2023-05-19T04:48:10.831Z,100.00
2023-05-19T04:50:42.308Z,100.00
2023-05-19T04:53:11.600Z,100.00
2023-05-19T04:55:41.014Z,100.00
2023-05-19T04:58:09.148Z,100.00
2023-05-19T05:00:38.999Z,100.00
2023-05-19T05:03:08.158Z,100.00
2023-05-19T05:05:36.321Z,100.00
2023-05-19T05:08:04.539Z,100.00
2023-05-19T05:10:32.935Z,100.00
2023-05-19T05:13:03.181Z,100.00
2023-05-19T05:15:31.756Z,100.00
2023-05-19T05:18:00.479Z,100.00
2023-05-19T05:20:29.623Z,100.00
2023-05-19T05:22:59.227Z,100.00
2023-05-19T05:25:28.712Z,100.00
2023-05-19T05:27:59.300Z,100.00
2023-05-19T05:30:28.684Z,100.00
2023-05-19T05:32:57.562Z,100.00
2023-05-19T05:35:26.412Z,100.00
2023-05-19T05:37:55.247Z,100.00
2023-05-19T05:40:23.447Z,99.71
2023-05-19T05:42:51.439Z,98.54
2023-05-19T05:45:19.556Z,96.62
2023-05-19T05:47:49.658Z,96.59
2023-05-19T05:50:18.785Z,96.09
2023-05-19T05:52:48.445Z,93.52
2023-05-19T05:55:18.544Z,92.62
2023-05-19T05:57:49.032Z,93.13
2023-05-19T06:00:18.055Z,90.18
2023-05-19T06:02:47.698Z,88.79
2023-05-19T06:05:17.425Z,92.07
2023-05-19T06:07:51.495Z,90.11
2023-05-19T06:10:20.285Z,92.51
2023-05-19T06:12:49.190Z,89.22
2023-05-19T06:15:17.994Z,88.86
2023-05-19T06:17:46.083Z,90.46
2023-05-19T06:20:16.391Z,88.40
2023-05-19T06:22:44.344Z,88.77
2023-05-19T06:25:12.340Z,86.63
2023-05-19T06:27:40.302Z,87.07
2023-05-19T06:30:09.760Z,85.79
2023-05-19T06:32:37.773Z,84.30
2023-05-19T06:35:06.818Z,85.05
2023-05-19T06:37:36.176Z,82.98
2023-05-19T06:40:05.718Z,83.21
2023-05-19T06:42:33.681Z,81.82
2023-05-19T06:45:01.610Z,81.69
2023-05-19T06:47:29.635Z,80.70
2023-05-19T06:50:00.698Z,81.41
2023-05-19T06:52:28.772Z,80.28
2023-05-19T06:54:58.115Z,80.79
2023-05-19T06:57:26.106Z,80.96
2023-05-19T06:59:54.158Z,82.15
2023-05-19T07:02:22.137Z,81.09
2023-05-19T07:04:51.504Z,80.86
2023-05-19T07:07:19.541Z,79.74
2023-05-19T07:09:47.547Z,81.10
2023-05-19T07:12:16.911Z,79.92
2023-05-19T07:14:46.180Z,79.64
2023-05-19T07:17:14.915Z,79.28
2023-05-19T07:19:46.284Z,79.74
2023-05-19T07:22:15.001Z,79.14
2023-05-19T07:24:43.011Z,79.04
2023-05-19T07:27:11.036Z,79.11
2023-05-19T07:29:40.423Z,78.67
2023-05-19T07:32:08.754Z,76.22
2023-05-19T07:34:36.889Z,75.97
2023-05-19T07:37:05.047Z,79.08
2023-05-19T07:39:33.046Z,75.65
2023-05-19T07:42:01.025Z,74.78
2023-05-19T07:44:31.382Z,73.75
2023-05-19T07:47:00.859Z,74.11
2023-05-19T07:49:30.001Z,75.48
2023-05-19T07:51:58.758Z,72.55
2023-05-19T07:54:27.537Z,73.19
2023-05-19T07:56:55.518Z,72.57
2023-05-19T07:59:24.393Z,70.68
2023-05-19T08:01:52.370Z,71.78
2023-05-19T08:04:21.776Z,72.74
2023-05-19T08:06:49.834Z,70.52
2023-05-19T08:09:17.765Z,69.83
2023-05-19T08:11:46.983Z,68.90
2023-05-19T08:14:14.916Z,69.29
2023-05-19T08:16:44.026Z,68.39
2023-05-19T08:19:11.992Z,69.20
2023-05-19T08:21:42.536Z,68.01
2023-05-19T08:24:10.520Z,71.26
2023-05-19T08:26:38.526Z,69.17
2023-05-19T08:29:06.485Z,66.27
2023-05-19T08:31:34.859Z,66.47
2023-05-19T08:34:03.626Z,67.23
2023-05-19T08:36:31.724Z,67.16
2023-05-19T08:39:01.095Z,66.73
2023-05-19T08:41:29.023Z,67.87
2023-05-19T08:43:57.026Z,67.24
2023-05-19T08:46:26.806Z,64.74
2023-05-19T08:49:00.132Z,63.74
2023-05-19T08:51:34.895Z,62.98
2023-05-19T08:54:14.017Z,62.97
2023-05-19T08:56:44.400Z,62.79
2023-05-19T08:59:14.517Z,61.51
2023-05-19T09:01:45.845Z,60.69
2023-05-19T09:04:14.513Z,58.63
2023-05-19T09:06:45.318Z,59.54
2023-05-19T09:09:15.631Z,60.75
2023-05-19T09:11:47.234Z,59.47
2023-05-19T09:14:15.218Z,58.54
2023-05-19T09:16:43.551Z,57.31
2023-05-19T09:19:16.562Z,57.40
2023-05-19T09:21:45.935Z,58.89
2023-05-19T09:24:15.365Z,59.00
2023-05-19T09:26:44.165Z,58.87
2023-05-19T09:29:13.016Z,58.73
2023-05-19T09:31:41.103Z,59.05
2023-05-19T09:34:14.116Z,59.06
2023-05-19T09:36:42.653Z,59.78
2023-05-19T09:39:18.559Z,59.26
2023-05-19T09:41:46.859Z,58.86
2023-05-19T09:44:22.492Z,58.50
2023-05-19T09:46:50.779Z,59.93
2023-05-19T09:49:22.986Z,57.30
2023-05-19T09:51:52.330Z,59.31
2023-05-19T09:54:23.844Z,59.00
2023-05-19T09:57:00.018Z,59.00
2023-05-19T09:59:31.512Z,59.82
2023-05-19T10:02:02.502Z,59.60
2023-05-19T10:04:31.737Z,58.01
2023-05-19T10:07:00.636Z,59.53
2023-05-19T10:09:31.136Z,60.22
2023-05-19T10:12:00.288Z,59.80
2023-05-19T10:14:29.938Z,58.43
2023-05-19T10:16:59.254Z,59.18
2023-05-19T10:19:29.931Z,60.10
2023-05-19T10:21:58.721Z,59.24
2023-05-19T10:24:27.468Z,60.03
2023-05-19T10:27:02.620Z,59.84
2023-05-19T10:29:34.573Z,59.87
2023-05-19T10:32:10.037Z,60.31
2023-05-19T10:34:59.425Z,60.38
2023-05-19T10:37:35.891Z,59.98
2023-05-19T10:40:10.814Z,58.78
2023-05-19T10:42:53.374Z,56.72
2023-05-19T10:45:24.002Z,55.06
2023-05-19T10:47:52.563Z,56.26
2023-05-19T10:50:21.766Z,56.13
2023-05-19T10:52:55.750Z,56.68
2023-05-19T10:55:49.023Z,55.59
2023-05-19T10:58:38.318Z,56.13
2023-05-19T11:01:10.035Z,56.03
2023-05-19T11:03:49.553Z,57.95
2023-05-19T11:06:28.407Z,55.89
2023-05-19T11:08:58.945Z,57.60
2023-05-19T11:11:26.934Z,57.29
2023-05-19T11:13:57.304Z,55.41
2023-05-19T11:16:29.746Z,55.10
2023-05-19T11:19:00.190Z,56.15
2023-05-19T11:21:43.115Z,55.81
2023-05-19T11:24:11.426Z,56.67
2023-05-19T11:26:43.708Z,56.23
2023-05-19T11:29:13.618Z,56.48
2023-05-19T11:31:44.775Z,57.03
2023-05-19T11:34:13.957Z,55.42
2023-05-19T11:36:44.015Z,54.79
2023-05-19T11:39:13.637Z,55.69
2023-05-19T11:41:41.778Z,55.50
2023-05-19T11:44:13.092Z,54.10
2023-05-19T11:46:41.139Z,53.67
2023-05-19T11:49:09.247Z,54.06
2023-05-19T11:51:38.498Z,54.38
2023-05-19T11:54:06.719Z,54.45
2023-05-19T11:56:35.969Z,54.16
2023-05-19T11:59:03.952Z,53.31
2023-05-19T12:01:34.089Z,55.22
2023-05-19T12:04:02.346Z,55.59
2023-05-19T12:06:31.200Z,54.60
2023-05-19T12:09:00.115Z,53.53
2023-05-19T12:11:29.598Z,54.09
2023-05-19T12:14:00.005Z,52.57
2023-05-19T12:16:36.032Z,53.56
2023-05-19T12:19:07.251Z,53.33
2023-05-19T12:21:35.581Z,52.71
2023-05-19T12:24:04.179Z,51.92
2023-05-19T12:26:32.176Z,52.47
2023-05-19T12:29:00.303Z,53.03
2023-05-19T12:31:28.437Z,53.61
2023-05-19T12:33:58.606Z,53.76
2023-05-19T12:36:27.256Z,52.82
2023-05-19T12:38:56.240Z,52.37
2023-05-19T12:41:27.554Z,51.74
2023-05-19T12:43:59.464Z,52.75
2023-05-19T12:46:27.663Z,53.02
2023-05-19T12:49:26.731Z,53.84
2023-05-19T12:51:56.774Z,53.43
2023-05-19T12:54:25.196Z,52.47
2023-05-19T12:56:54.008Z,53.98
2023-05-19T12:59:37.433Z,54.97
2023-05-19T13:02:06.374Z,52.67
2023-05-19T13:04:34.580Z,54.58
2023-05-19T13:07:04.043Z,52.67
2023-05-19T13:09:35.157Z,53.87
2023-05-19T13:12:04.873Z,54.59
2023-05-19T13:14:32.923Z,54.00
2023-05-19T13:17:00.987Z,55.56
2023-05-19T13:19:29.279Z,55.90
2023-05-19T13:21:57.519Z,55.25
2023-05-19T13:24:27.034Z,53.46
2023-05-19T13:26:56.103Z,56.50
2023-05-19T13:29:24.183Z,54.79
2023-05-19T13:31:52.176Z,56.56
2023-05-19T13:34:21.388Z,56.59
2023-05-19T13:36:49.655Z,54.78
2023-05-19T13:39:20.480Z,55.24
2023-05-19T13:41:50.691Z,55.76
2023-05-19T13:44:20.060Z,56.30
2023-05-19T13:46:49.856Z,54.79
2023-05-19T13:49:20.855Z,54.76
2023-05-19T13:51:49.064Z,55.18
2023-05-19T13:54:19.234Z,54.91
2023-05-19T13:56:53.095Z,54.48
2023-05-19T13:59:21.816Z,56.24
2023-05-19T14:01:49.944Z,57.51
2023-05-19T14:04:19.514Z,56.21
2023-05-19T14:06:47.887Z,56.69
2023-05-19T14:09:16.521Z,56.75
2023-05-19T14:11:44.574Z,56.63
2023-05-19T14:14:13.978Z,56.24
2023-05-19T14:16:42.441Z,56.70
2023-05-19T14:19:11.356Z,56.24
2023-05-19T14:21:39.478Z,57.75
2023-05-19T14:24:08.046Z,57.14
2023-05-19T14:26:36.095Z,56.60
2023-05-19T14:29:04.859Z,58.84
2023-05-19T14:31:34.515Z,58.24
2023-05-19T14:34:02.556Z,59.23
2023-05-19T14:36:31.923Z,58.81
2023-05-19T14:39:00.425Z,58.63
2023-05-19T14:41:29.984Z,58.19
2023-05-19T14:43:58.208Z,59.65
2023-05-19T14:46:27.392Z,58.80
2023-05-19T14:48:57.142Z,59.16
2023-05-19T14:51:25.139Z,59.31
2023-05-19T14:53:53.149Z,59.78
2023-05-19T14:56:23.150Z,58.87
2023-05-19T14:58:52.045Z,59.42
2023-05-19T15:01:20.096Z,59.45
2023-05-19T15:03:48.177Z,60.35
2023-05-19T15:06:17.624Z,59.79
2023-05-19T15:08:46.022Z,60.17
2023-05-19T15:11:14.018Z,61.17
2023-05-19T15:13:42.064Z,60.98
2023-05-19T15:16:17.734Z,61.71
2023-05-19T15:18:46.625Z,61.27
2023-05-19T15:21:14.683Z,60.06
2023-05-19T15:23:44.102Z,60.58
2023-05-19T15:26:12.509Z,61.94
2023-05-19T15:28:40.771Z,63.52
2023-05-19T15:31:08.795Z,62.99
2023-05-19T15:33:36.961Z,65.07
2023-05-19T15:36:05.325Z,63.46
2023-05-19T15:38:37.426Z,62.94
2023-05-19T15:41:12.876Z,63.72
2023-05-19T15:43:41.596Z,64.80
2023-05-19T15:46:09.637Z,63.67
2023-05-19T15:48:37.683Z,65.95
2023-05-19T15:51:06.096Z,64.84
2023-05-19T15:53:34.086Z,65.18
2023-05-19T15:56:03.334Z,63.78
2023-05-19T15:58:34.047Z,63.58
2023-05-19T16:01:06.198Z,64.73
2023-05-19T16:03:37.573Z,64.21
2023-05-19T16:06:12.254Z,64.69
2023-05-19T16:08:40.351Z,63.76
2023-05-19T16:11:11.257Z,63.57
2023-05-19T16:13:41.138Z,63.46
2023-05-19T16:16:09.396Z,65.62
2023-05-19T16:18:37.804Z,64.91
2023-05-19T16:21:06.622Z,65.44
2023-05-19T16:23:34.676Z,65.91
2023-05-19T16:26:02.731Z,66.43
2023-05-19T16:28:30.676Z,66.18
2023-05-19T16:31:01.609Z,65.57
2023-05-19T16:33:30.334Z,66.66
2023-05-19T16:36:05.409Z,66.51
2023-05-19T16:38:40.682Z,66.11
2023-05-19T16:41:22.433Z,64.87
2023-05-19T16:43:53.620Z,66.55
2023-05-19T16:46:25.610Z,65.77
2023-05-19T16:48:55.344Z,66.31
2023-05-19T16:51:31.998Z,65.70
2023-05-19T16:54:04.312Z,66.90
2023-05-19T16:56:41.528Z,67.31
2023-05-19T16:59:28.434Z,67.19
2023-05-19T17:02:01.177Z,67.09
2023-05-19T17:04:31.169Z,66.45
2023-05-19T17:07:03.595Z,65.75
2023-05-19T17:09:50.855Z,68.29
2023-05-19T17:12:24.266Z,67.16
2023-05-19T17:14:54.281Z,67.27
2023-05-19T17:17:25.358Z,67.10
2023-05-19T17:20:00.189Z,67.42
2023-05-19T17:22:31.282Z,67.82
2023-05-19T17:25:00.840Z,68.32
2023-05-19T17:27:29.455Z,68.45
2023-05-19T17:30:00.840Z,67.95
2023-05-19T17:32:36.992Z,67.80
2023-05-19T17:35:07.069Z,68.93
2023-05-19T17:37:37.849Z,68.38
2023-05-19T17:40:11.204Z,68.27
2023-05-19T17:42:39.846Z,69.14
2023-05-19T17:45:12.998Z,69.12
2023-05-19T17:47:44.226Z,69.33
2023-05-19T17:50:15.445Z,68.66
2023-05-19T17:52:45.859Z,68.85
2023-05-19T17:55:19.008Z,68.29
2023-05-19T17:57:48.117Z,68.09
2023-05-19T18:00:18.079Z,67.48
2023-05-19T18:02:51.436Z,68.28
2023-05-19T18:05:22.196Z,67.30
2023-05-19T18:07:54.446Z,68.03
2023-05-19T18:10:31.068Z,67.84
2023-05-19T18:13:00.759Z,67.90
2023-05-19T18:15:32.044Z,66.62
2023-05-19T18:18:03.426Z,68.83
2023-05-19T18:20:34.209Z,67.88
2023-05-19T18:23:03.763Z,69.27
2023-05-19T18:25:31.798Z,69.07
2023-05-19T18:27:59.743Z,68.94
2023-05-19T18:30:27.808Z,68.60
2023-05-19T18:32:55.845Z,68.71
2023-05-19T18:35:25.284Z,68.81
2023-05-19T18:37:56.540Z,68.42
2023-05-19T18:40:25.023Z,68.95
2023-05-19T18:42:53.046Z,69.22
2023-05-19T18:45:21.093Z,69.48
2023-05-19T18:47:52.089Z,69.97
2023-05-19T18:50:20.766Z,70.04
2023-05-19T18:52:50.148Z,71.28
2023-05-19T18:55:18.271Z,72.23
2023-05-19T18:57:46.227Z,71.07
2023-05-19T19:00:15.103Z,70.53
2023-05-19T19:02:43.167Z,71.24
2023-05-19T19:05:11.341Z,70.42
2023-05-19T19:07:42.300Z,70.11
2023-05-19T19:10:12.793Z,70.20
2023-05-19T19:12:40.776Z,69.37
2023-05-19T19:15:09.696Z,69.72
2023-05-19T19:17:40.268Z,69.31
2023-05-19T19:20:10.008Z,69.59
2023-05-19T19:22:38.180Z,70.21
2023-05-19T19:25:06.969Z,70.07
2023-05-19T19:27:36.335Z,70.26
2023-05-19T19:30:07.986Z,71.40
2023-05-19T19:32:36.210Z,72.11
2023-05-19T19:35:04.392Z,72.61
2023-05-19T19:37:32.384Z,73.32
2023-05-19T19:40:03.332Z,73.52
2023-05-19T19:42:33.577Z,73.38
2023-05-19T19:45:03.912Z,74.21
2023-05-19T19:47:37.450Z,75.42
2023-05-19T19:50:10.146Z,76.55
2023-05-19T19:52:38.377Z,77.59
2023-05-19T19:55:07.464Z,79.05
2023-05-19T19:57:35.813Z,78.23
2023-05-19T20:00:08.364Z,76.02
2023-05-19T20:02:41.071Z,76.23
2023-05-19T20:05:14.319Z,77.01
2023-05-19T20:07:42.290Z,76.44
2023-05-19T20:10:12.606Z,76.02
2023-05-19T20:12:44.983Z,75.63
2023-05-19T20:15:18.823Z,75.65
2023-05-19T20:17:47.449Z,74.67
2023-05-19T20:20:16.884Z,75.53
2023-05-19T20:22:46.526Z,74.77
2023-05-19T20:25:15.777Z,75.90
2023-05-19T20:27:44.950Z,76.20
2023-05-19T20:30:15.674Z,76.77
2023-05-19T20:32:44.163Z,77.45
2023-05-19T20:35:18.376Z,77.81
2023-05-19T20:37:48.196Z,78.15
2023-05-19T20:40:16.937Z,77.76
2023-05-19T20:42:45.628Z,79.14
2023-05-19T20:45:16.145Z,79.75
2023-05-19T20:47:45.130Z,80.06
2023-05-19T20:50:16.422Z,79.67
2023-05-19T20:52:44.455Z,79.46
2023-05-19T20:55:13.507Z,80.10
2023-05-19T20:57:44.050Z,79.92
2023-05-19T21:00:13.462Z,80.43
2023-05-19T21:02:46.143Z,81.20
2023-05-19T21:05:14.909Z,81.74
2023-05-19T21:07:44.066Z,81.65
2023-05-19T21:10:14.285Z,81.33
2023-05-19T21:12:42.605Z,81.77
2023-05-19T21:15:11.508Z,82.24
2023-05-19T21:17:39.828Z,81.38
2023-05-19T21:20:14.724Z,81.92
2023-05-19T21:22:44.565Z,83.12
2023-05-19T21:25:12.873Z,82.93
2023-05-19T21:27:40.989Z,82.19
2023-05-19T21:30:10.843Z,81.68
2023-05-19T21:32:39.726Z,82.11
2023-05-19T21:35:11.706Z,82.58
2023-05-19T21:37:39.928Z,82.91
2023-05-19T21:40:10.439Z,82.50
2023-05-19T21:42:39.582Z,83.61
2023-05-19T21:45:09.876Z,83.29
2023-05-19T21:47:38.122Z,84.35
2023-05-19T21:50:07.460Z,84.77
2023-05-19T21:52:39.979Z,85.58
2023-05-19T21:55:11.225Z,87.04
2023-05-19T21:57:41.201Z,88.84
2023-05-19T22:00:15.970Z,87.71
2023-05-19T22:02:45.490Z,89.67
2023-05-19T22:05:13.920Z,91.76
2023-05-19T22:07:51.569Z,92.23
2023-05-19T22:10:19.798Z,93.70
2023-05-19T22:12:48.538Z,93.87
2023-05-19T22:15:17.023Z,94.58
2023-05-19T22:17:45.177Z,94.34
2023-05-19T22:20:14.150Z,95.40
2023-05-19T22:22:43.654Z,94.30
2023-05-19T22:25:11.899Z,93.47
2023-05-19T22:27:41.013Z,94.00
2023-05-19T22:30:13.406Z,93.70
2023-05-19T22:32:42.860Z,95.05
2023-05-19T22:35:15.988Z,93.96
2023-05-19T22:37:46.180Z,95.52
2023-05-19T22:40:14.629Z,94.95
2023-05-19T22:42:42.848Z,96.38
2023-05-19T22:45:12.516Z,97.71
2023-05-19T22:47:41.503Z,97.77
2023-05-19T22:50:11.405Z,98.12
2023-05-19T22:52:40.324Z,98.33
2023-05-19T22:55:10.972Z,98.33
2023-05-19T22:57:43.428Z,99.18
2023-05-19T23:00:14.693Z,100.00
2023-05-19T23:02:45.966Z,98.24
2023-05-19T23:05:14.887Z,96.61
2023-05-19T23:07:43.142Z,97.33
2023-05-19T23:10:13.857Z,97.70
2023-05-19T23:12:42.064Z,95.12
2023-05-19T23:15:11.193Z,94.99
2023-05-19T23:17:39.793Z,94.43
2023-05-19T23:20:09.704Z,95.37
2023-05-19T23:22:38.213Z,94.17
2023-05-19T23:25:07.993Z,95.21
2023-05-19T23:27:37.829Z,95.65
2023-05-19T23:30:07.009Z,96.35
2023-05-19T23:32:35.045Z,97.00
2023-05-19T23:35:11.640Z,97.94
2023-05-19T23:37:39.630Z,99.62
2023-05-19T23:40:09.169Z,98.24
2023-05-19T23:42:38.705Z,99.18
2023-05-19T23:45:08.336Z,99.09
2023-05-19T23:47:37.074Z,98.79
2023-05-19T23:50:05.620Z,100.00
2023-05-19T23:52:33.906Z,100.00
2023-05-19T23:55:03.413Z,98.57
2023-05-19T23:57:31.456Z,99.25
